createdAt,value
2023-02-09T00:01:11.501Z,-6.64
2023-02-09T00:03:38.731Z,-6.66
2023-02-09T00:06:06.523Z,-6.70
2023-02-09T00:08:34.740Z,-6.74
2023-02-09T00:11:05.403Z,-6.77
2023-02-09T00:13:33.016Z,-6.81
2023-02-09T00:16:03.394Z,-6.84
2023-02-09T00:18:32.027Z,-6.86
2023-02-09T00:21:00.422Z,-6.87
2023-02-09T00:23:31.114Z,-6.88
2023-02-09T00:26:01.714Z,-6.93
2023-02-09T00:28:29.573Z,-6.98
2023-02-09T00:30:56.896Z,-7.00
2023-02-09T00:33:24.425Z,-7.03
2023-02-09T00:35:53.690Z,-7.07
2023-02-09T00:38:22.371Z,-7.04
2023-02-09T00:40:49.466Z,-6.99
2023-02-09T00:43:16.756Z,-7.01
2023-02-09T00:45:43.739Z,-6.95
2023-02-09T00:48:11.419Z,-6.94
2023-02-09T00:50:38.329Z,-6.96
2023-02-09T00:53:05.551Z,-6.92
2023-02-09T00:55:32.599Z,-6.93
2023-02-09T00:58:00.138Z,-6.95
2023-02-09T01:00:28.991Z,-6.96
2023-02-09T01:02:57.347Z,-6.97
2023-02-09T01:05:24.460Z,-6.94
2023-02-09T01:07:51.663Z,-6.90
2023-02-09T01:10:20.690Z,-6.94
2023-02-09T01:12:47.906Z,-6.92
2023-02-09T01:15:14.861Z,-6.90
2023-02-09T01:17:44.787Z,-6.94
2023-02-09T01:20:12.932Z,-7.01
2023-02-09T01:22:40.327Z,-7.04
2023-02-09T01:25:07.991Z,-7.03
2023-02-09T01:27:36.629Z,-6.94
2023-02-09T01:30:04.356Z,-6.90
2023-02-09T01:32:32.959Z,-6.91
2023-02-09T01:35:00.197Z,-6.95
2023-02-09T01:37:27.370Z,-6.94
2023-02-09T01:39:54.271Z,-6.96
2023-02-09T01:42:21.473Z,-6.92
2023-02-09T01:45:17.920Z,-6.94
2023-02-09T01:47:47.810Z,-6.93
2023-02-09T01:50:15.745Z,-6.95
2023-02-09T01:52:45.971Z,-7.00
2023-02-09T01:55:17.757Z,-7.04
2023-02-09T01:58:03.375Z,-7.12
2023-02-09T02:00:30.399Z,-7.19
2023-02-09T02:03:01.887Z,-7.24
2023-02-09T02:05:29.569Z,-7.26
2023-02-09T02:08:00.969Z,-7.26
2023-02-09T02:10:28.074Z,-7.30
2023-02-09T02:12:55.338Z,-7.31
2023-02-09T02:15:25.861Z,-7.32
2023-02-09T02:17:56.149Z,-7.32
2023-02-09T02:20:43.886Z,-7.33
2023-02-09T02:23:29.742Z,-7.19
2023-02-09T02:26:08.926Z,-6.96
2023-02-09T02:28:55.080Z,-6.76
2023-02-09T02:31:40.717Z,-6.68
2023-02-09T02:34:21.299Z,-6.62
2023-02-09T02:37:00.331Z,-6.50
2023-02-09T02:39:36.490Z,-6.46
2023-02-09T02:42:26.687Z,-6.45
2023-02-09T02:45:14.088Z,-6.37
2023-02-09T02:47:43.517Z,-6.33
2023-02-09T02:50:13.691Z,-6.29
2023-02-09T02:52:43.473Z,-6.21
2023-02-09T02:55:13.772Z,-6.18
2023-02-09T02:57:43.491Z,-6.15
2023-02-09T03:00:15.073Z,-6.15
2023-02-09T03:02:45.179Z,-6.14
2023-02-09T03:05:12.580Z,-6.13
2023-02-09T03:07:41.865Z,-6.08
2023-02-09T03:10:24.758Z,-6.13
2023-02-09T03:12:56.481Z,-6.15
2023-02-09T03:15:29.718Z,-6.24
2023-02-09T03:18:14.364Z,-6.31
2023-02-09T03:20:50.713Z,-6.39
2023-02-09T03:23:27.205Z,-6.47
2023-02-09T03:25:56.497Z,-6.46
2023-02-09T03:28:27.123Z,-6.53
2023-02-09T03:30:55.190Z,-6.58
2023-02-09T03:33:24.510Z,-6.62
2023-02-09T03:35:53.635Z,-6.63
2023-02-09T03:38:20.848Z,-6.61
2023-02-09T03:40:48.079Z,-6.69
2023-02-09T03:43:15.130Z,-6.61
2023-02-09T03:45:42.301Z,-6.55
2023-02-09T03:48:09.216Z,-6.53
2023-02-09T03:50:36.828Z,-6.47
2023-02-09T03:53:06.599Z,-6.41
2023-02-09T03:55:34.038Z,-6.42
2023-02-09T03:58:00.990Z,-6.32
2023-02-09T04:00:28.346Z,-6.37
2023-02-09T04:02:56.417Z,-6.35
2023-02-09T04:05:23.675Z,-6.31
2023-02-09T04:07:50.766Z,-6.31
2023-02-09T04:10:17.909Z,-6.23
2023-02-09T04:12:44.805Z,-6.28
2023-02-09T04:15:12.011Z,-6.25
2023-02-09T04:17:38.946Z,-6.30
2023-02-09T04:20:06.504Z,-6.33
2023-02-09T04:22:33.585Z,-6.35
2023-02-09T04:25:00.761Z,-6.37
2023-02-09T04:27:28.554Z,-6.37
2023-02-09T04:29:55.685Z,-6.34
2023-02-09T04:32:22.540Z,-6.28
2023-02-09T04:34:49.911Z,-6.23
2023-02-09T04:37:19.252Z,-6.26
2023-02-09T04:39:48.493Z,-6.28
2023-02-09T04:42:15.421Z,-6.29
2023-02-09T04:44:42.499Z,-6.27
2023-02-09T04:47:09.521Z,-6.32
2023-02-09T04:49:36.713Z,-6.21
2023-02-09T04:52:03.620Z,-6.22
2023-02-09T04:54:30.987Z,-6.24
2023-02-09T04:57:16.640Z,-6.31
2023-02-09T04:59:45.071Z,-6.33
2023-02-09T05:02:12.002Z,-6.38
2023-02-09T05:04:39.156Z,-6.37
2023-02-09T05:07:06.137Z,-6.43
2023-02-09T05:09:33.320Z,-6.55
2023-02-09T05:12:00.368Z,-6.64
2023-02-09T05:14:27.631Z,-6.71
2023-02-09T05:16:54.569Z,-6.55
2023-02-09T05:19:21.714Z,-6.65
2023-02-09T05:21:48.565Z,-6.73
2023-02-09T05:24:16.005Z,-6.83
2023-02-09T05:26:42.866Z,-6.87
2023-02-09T05:29:10.018Z,-6.92
2023-02-09T05:31:36.995Z,-6.90
2023-02-09T05:34:04.242Z,-6.89
2023-02-09T05:36:31.059Z,-6.88
2023-02-09T05:38:58.257Z,-6.90
2023-02-09T05:41:43.700Z,-6.92
2023-02-09T05:44:13.537Z,-6.96
2023-02-09T05:46:40.355Z,-7.00
2023-02-09T05:49:07.530Z,-7.04
2023-02-09T05:51:34.361Z,-6.95
2023-02-09T05:54:01.614Z,-6.96
2023-02-09T05:56:28.811Z,-7.00
2023-02-09T05:58:56.273Z,-7.00
2023-02-09T06:01:23.135Z,-6.98
2023-02-09T06:03:50.430Z,-6.97
2023-02-09T06:06:17.311Z,-6.98
2023-02-09T06:08:44.455Z,-7.01
2023-02-09T06:11:11.362Z,-6.98
2023-02-09T06:13:38.551Z,-6.99
2023-02-09T06:16:05.608Z,-7.04
2023-02-09T06:18:32.785Z,-7.02
2023-02-09T06:20:59.854Z,-6.97
2023-02-09T06:23:27.311Z,-6.97
2023-02-09T06:25:54.159Z,-6.87
2023-02-09T06:28:21.504Z,-6.80
2023-02-09T06:30:52.603Z,-6.77
2023-02-09T06:33:20.337Z,-6.74
2023-02-09T06:35:47.279Z,-6.71
2023-02-09T06:38:17.030Z,-6.69
2023-02-09T06:40:44.201Z,-6.66
2023-02-09T06:43:11.621Z,-6.56
2023-02-09T06:45:39.212Z,-6.38
2023-02-09T06:48:07.428Z,-6.13
2023-02-09T06:50:39.986Z,-5.72
2023-02-09T06:53:07.349Z,-5.11
2023-02-09T06:55:34.474Z,-4.36
2023-02-09T06:58:01.753Z,-3.62
2023-02-09T07:00:28.732Z,-2.73
2023-02-09T07:02:56.068Z,-1.74
2023-02-09T07:05:23.047Z,-0.59
2023-02-09T07:07:50.270Z,0.65
2023-02-09T07:10:17.282Z,1.14
2023-02-09T07:12:44.837Z,1.41
2023-02-09T07:15:12.649Z,2.34
2023-02-09T07:17:40.408Z,2.47
2023-02-09T07:20:07.696Z,2.36
2023-02-09T07:22:35.011Z,2.76
2023-02-09T07:25:04.307Z,2.68
2023-02-09T07:27:31.697Z,2.77
2023-02-09T07:30:00.817Z,3.65
2023-02-09T07:32:28.349Z,3.23
2023-02-09T07:34:55.306Z,3.18
2023-02-09T07:37:22.517Z,2.96
2023-02-09T07:39:49.555Z,2.92
2023-02-09T07:42:19.432Z,3.31
2023-02-09T07:44:56.126Z,3.80
2023-02-09T07:47:24.370Z,4.39
2023-02-09T07:49:51.493Z,4.70
2023-02-09T07:52:18.965Z,5.26
2023-02-09T07:54:49.487Z,5.69
2023-02-09T07:57:16.701Z,5.84
2023-02-09T07:59:43.670Z,6.47
2023-02-09T08:02:16.900Z,5.90
2023-02-09T08:04:44.755Z,6.51
2023-02-09T08:07:12.009Z,6.82
2023-02-09T08:09:38.979Z,7.14
2023-02-09T08:12:07.988Z,7.31
2023-02-09T08:14:39.749Z,6.98
2023-02-09T08:17:29.601Z,7.23
2023-02-09T08:20:00.857Z,7.52
2023-02-09T08:22:29.869Z,7.34
2023-02-09T08:24:57.913Z,7.43
2023-02-09T08:27:26.165Z,6.93
2023-02-09T08:29:53.480Z,6.24
2023-02-09T08:32:20.840Z,5.24
2023-02-09T08:34:47.953Z,4.81
2023-02-09T08:37:15.255Z,3.88
2023-02-09T08:39:42.199Z,3.38
2023-02-09T08:42:09.411Z,3.15
2023-02-09T08:44:36.348Z,2.96
2023-02-09T08:47:04.093Z,2.45
2023-02-09T08:49:31.257Z,2.42
2023-02-09T08:52:01.012Z,2.40
2023-02-09T08:54:27.949Z,1.81
2023-02-09T08:56:55.191Z,1.62
2023-02-09T08:59:23.425Z,1.75
2023-02-09T09:01:50.668Z,1.86
2023-02-09T09:04:17.591Z,1.74
2023-02-09T09:06:44.828Z,1.59
2023-02-09T09:09:11.688Z,1.50
2023-02-09T09:11:39.080Z,1.42
2023-02-09T09:14:06.383Z,1.61
2023-02-09T09:16:33.885Z,1.69
2023-02-09T09:19:00.832Z,1.64
2023-02-09T09:21:28.081Z,1.49
2023-02-09T09:23:54.928Z,1.39
2023-02-09T09:26:23.235Z,1.73
2023-02-09T09:28:51.129Z,1.95
2023-02-09T09:31:19.095Z,2.09
2023-02-09T09:33:46.499Z,2.06
2023-02-09T09:36:14.801Z,2.06
2023-02-09T09:38:42.163Z,1.98
2023-02-09T09:41:38.880Z,2.14
2023-02-09T09:44:13.122Z,2.09
2023-02-09T09:46:42.864Z,2.05
2023-02-09T09:49:17.837Z,2.14
2023-02-09T09:51:48.008Z,2.30
2023-02-09T09:54:20.754Z,2.39
2023-02-09T09:56:48.215Z,2.22
2023-02-09T09:59:17.413Z,2.12
2023-02-09T10:01:45.028Z,2.00
2023-02-09T10:04:13.502Z,2.16
2023-02-09T10:06:41.973Z,2.32
2023-02-09T10:09:22.105Z,2.43
2023-02-09T10:11:53.719Z,2.50
2023-02-09T10:14:22.899Z,2.37
2023-02-09T10:16:50.991Z,2.44
2023-02-09T10:19:17.903Z,2.41
2023-02-09T10:21:45.102Z,2.13
2023-02-09T10:24:13.719Z,2.27
2023-02-09T10:26:42.937Z,2.46
2023-02-09T10:29:12.907Z,2.48
2023-02-09T10:31:40.220Z,2.39
2023-02-09T10:34:14.124Z,2.38
2023-02-09T10:36:47.248Z,2.52
2023-02-09T10:39:19.320Z,2.61
2023-02-09T10:41:48.304Z,2.64
2023-02-09T10:44:40.244Z,2.44
2023-02-09T10:47:10.341Z,2.52
2023-02-09T10:49:40.267Z,2.65
2023-02-09T10:52:14.290Z,2.73
2023-02-09T10:54:42.433Z,2.65
2023-02-09T10:57:29.842Z,2.79
2023-02-09T10:59:58.605Z,2.46
2023-02-09T11:02:48.747Z,2.41
2023-02-09T11:05:22.051Z,2.35
2023-02-09T11:07:56.335Z,2.43
2023-02-09T11:10:23.684Z,2.69
2023-02-09T11:12:50.852Z,2.51
2023-02-09T11:15:23.896Z,2.58
2023-02-09T11:18:15.898Z,2.52
2023-02-09T11:20:49.571Z,2.36
2023-02-09T11:23:32.176Z,2.42
2023-02-09T11:26:22.465Z,2.35
2023-02-09T11:28:49.749Z,2.47
2023-02-09T11:31:22.902Z,2.36
2023-02-09T11:34:09.064Z,2.36
2023-02-09T11:37:01.566Z,2.69
2023-02-09T11:39:36.133Z,2.68
2023-02-09T11:42:25.627Z,2.70
2023-02-09T11:44:58.935Z,2.80
2023-02-09T11:47:33.245Z,2.87
2023-02-09T11:50:02.653Z,2.81
2023-02-09T11:52:59.085Z,2.79
2023-02-09T11:55:41.717Z,2.87
2023-02-09T11:58:15.227Z,2.88
2023-02-09T12:00:54.835Z,2.79
2023-02-09T12:03:24.712Z,2.76
2023-02-09T12:05:52.145Z,2.72
2023-02-09T12:08:39.945Z,2.91
2023-02-09T12:11:10.764Z,2.88
2023-02-09T12:13:56.558Z,3.01
2023-02-09T12:16:32.090Z,3.11
2023-02-09T12:18:59.251Z,3.14
2023-02-09T12:21:34.222Z,3.09
2023-02-09T12:24:03.520Z,3.01
2023-02-09T12:26:40.677Z,2.96
2023-02-09T12:29:27.913Z,2.81
2023-02-09T12:32:04.527Z,2.90
2023-02-09T12:34:37.858Z,2.97
2023-02-09T12:37:16.992Z,2.97
2023-02-09T12:40:04.978Z,3.12
2023-02-09T12:42:58.573Z,3.09
2023-02-09T12:45:37.988Z,3.05
2023-02-09T12:48:07.971Z,2.95
2023-02-09T12:51:01.296Z,2.87
2023-02-09T12:53:32.605Z,3.01
2023-02-09T12:56:12.628Z,2.90
2023-02-09T12:58:45.978Z,2.99
2023-02-09T13:01:14.570Z,2.96
2023-02-09T13:03:45.057Z,3.02
2023-02-09T13:06:32.197Z,2.96
2023-02-09T13:09:02.443Z,3.09
2023-02-09T13:11:32.769Z,2.99
2023-02-09T13:14:07.643Z,3.03
2023-02-09T13:16:43.677Z,2.94
2023-02-09T13:19:42.384Z,2.86
2023-02-09T13:22:32.252Z,2.90
2023-02-09T13:25:01.130Z,2.96
2023-02-09T13:27:29.291Z,2.94
2023-02-09T13:29:57.816Z,2.98
2023-02-09T13:32:50.322Z,2.96
2023-02-09T13:35:40.592Z,3.01
2023-02-09T13:38:29.671Z,2.92
2023-02-09T13:40:58.279Z,2.91
2023-02-09T13:43:30.306Z,2.90
2023-02-09T13:45:59.070Z,2.80
2023-02-09T13:48:25.983Z,2.80
2023-02-09T13:50:54.074Z,2.86
2023-02-09T13:53:24.345Z,2.76
2023-02-09T13:55:53.250Z,2.83
2023-02-09T13:58:26.051Z,2.86
2023-02-09T14:00:53.393Z,2.88
2023-02-09T14:03:22.489Z,2.83
2023-02-09T14:06:09.124Z,2.78
2023-02-09T14:08:38.909Z,2.83
2023-02-09T14:11:10.364Z,2.77
2023-02-09T14:13:40.690Z,2.69
2023-02-09T14:16:11.825Z,2.75
2023-02-09T14:18:43.205Z,2.64
2023-02-09T14:21:10.363Z,2.61
2023-02-09T14:23:37.810Z,2.57
2023-02-09T14:26:06.694Z,2.54
2023-02-09T14:28:34.821Z,2.53
2023-02-09T14:31:02.235Z,2.51
2023-02-09T14:33:31.387Z,2.50
2023-02-09T14:35:59.844Z,2.51
2023-02-09T14:38:42.637Z,2.45
2023-02-09T14:41:32.464Z,2.46
2023-02-09T14:44:13.725Z,2.39
2023-02-09T14:46:48.567Z,2.34
2023-02-09T14:49:15.579Z,2.29
2023-02-09T14:51:43.346Z,2.29
2023-02-09T14:54:30.256Z,2.27
2023-02-09T14:56:58.842Z,2.16
2023-02-09T14:59:25.810Z,2.16
2023-02-09T15:01:54.346Z,2.12
2023-02-09T15:04:23.710Z,2.14
2023-02-09T15:07:03.177Z,2.08
2023-02-09T15:09:32.832Z,2.03
2023-02-09T15:12:06.153Z,2.00
2023-02-09T15:14:44.129Z,1.94
2023-02-09T15:17:16.232Z,1.91
2023-02-09T15:19:44.103Z,1.86
2023-02-09T15:22:15.029Z,1.77
2023-02-09T15:24:42.939Z,1.72
2023-02-09T15:27:14.069Z,1.71
2023-02-09T15:29:41.154Z,1.66
2023-02-09T15:32:13.766Z,1.63
2023-02-09T15:34:41.023Z,1.54
2023-02-09T15:37:16.311Z,1.44
2023-02-09T15:39:43.318Z,1.39
2023-02-09T15:42:36.073Z,1.34
2023-02-09T15:45:35.954Z,1.23
2023-02-09T15:48:04.031Z,1.17
2023-02-09T15:50:32.824Z,1.06
2023-02-09T15:53:01.793Z,1.01
2023-02-09T15:55:29.496Z,0.96
2023-02-09T15:57:59.860Z,0.91
2023-02-09T16:00:28.235Z,0.83
2023-02-09T16:02:56.692Z,0.77
2023-02-09T16:05:26.641Z,0.69
2023-02-09T16:07:53.917Z,0.67
2023-02-09T16:10:25.997Z,0.60
2023-02-09T16:12:57.017Z,0.52
2023-02-09T16:15:25.922Z,0.47
2023-02-09T16:17:54.434Z,0.50
2023-02-09T16:20:23.724Z,0.50
2023-02-09T16:22:53.648Z,0.49
2023-02-09T16:25:25.760Z,0.49
2023-02-09T16:27:54.005Z,0.42
2023-02-09T16:30:28.833Z,0.35
2023-02-09T16:32:56.441Z,0.32
2023-02-09T16:35:24.564Z,0.29
2023-02-09T16:37:56.669Z,0.30
2023-02-09T16:40:24.099Z,0.25
2023-02-09T16:42:52.136Z,0.15
2023-02-09T16:45:25.573Z,0.25
2023-02-09T16:47:56.081Z,0.28
2023-02-09T16:50:27.056Z,0.19
2023-02-09T16:52:55.633Z,0.13
2023-02-09T16:55:31.468Z,0.07
2023-02-09T16:58:00.763Z,-0.09
2023-02-09T17:00:29.688Z,-0.21
2023-02-09T17:02:57.982Z,-0.22
2023-02-09T17:05:29.783Z,-0.18
2023-02-09T17:08:02.264Z,-0.17
2023-02-09T17:10:32.815Z,-0.09
2023-02-09T17:13:02.033Z,-0.03
2023-02-09T17:15:32.246Z,-0.03
2023-02-09T17:18:02.586Z,-0.07
2023-02-09T17:20:36.721Z,-0.08
2023-02-09T17:23:04.889Z,-0.04
2023-02-09T17:25:36.341Z,-0.12
2023-02-09T17:28:04.983Z,-0.21
2023-02-09T17:30:33.917Z,-0.24
2023-02-09T17:33:03.234Z,-0.33
2023-02-09T17:36:03.644Z,-0.33
2023-02-09T17:38:27.931Z,-0.36
2023-02-09T17:40:57.030Z,-0.34
2023-02-09T17:43:26.961Z,-0.44
2023-02-09T17:45:55.262Z,-0.51
2023-02-09T17:48:23.712Z,-0.47
2023-02-09T17:50:57.648Z,-0.49
2023-02-09T17:53:28.143Z,-0.47
2023-02-09T17:55:56.620Z,-0.56
2023-02-09T17:58:25.022Z,-0.55
2023-02-09T18:00:59.043Z,-0.66
2023-02-09T18:03:27.502Z,-0.75
2023-02-09T18:05:59.562Z,-0.76
2023-02-09T18:08:32.550Z,-0.84
2023-02-09T18:11:00.698Z,-0.98
2023-02-09T18:13:29.051Z,-0.92
2023-02-09T18:15:57.223Z,-0.85
2023-02-09T18:18:25.846Z,-0.88
2023-02-09T18:20:55.083Z,-0.88
2023-02-09T18:23:23.909Z,-0.81
2023-02-09T18:25:52.338Z,-0.88
2023-02-09T18:28:21.234Z,-0.79
2023-02-09T18:30:51.743Z,-0.73
2023-02-09T18:33:23.758Z,-0.66
2023-02-09T18:35:52.064Z,-0.57
2023-02-09T18:38:20.975Z,-0.55
2023-02-09T18:40:53.784Z,-0.62
2023-02-09T18:43:22.939Z,-0.68
2023-02-09T18:45:51.409Z,-0.74
2023-02-09T18:48:20.435Z,-0.77
2023-02-09T18:50:48.898Z,-0.84
2023-02-09T18:53:19.494Z,-0.78
2023-02-09T18:56:00.750Z,-0.85
2023-02-09T18:58:28.812Z,-0.98
2023-02-09T19:00:56.858Z,-0.99
2023-02-09T19:03:25.117Z,-0.99
2023-02-09T19:05:53.406Z,-1.01
2023-02-09T19:08:20.977Z,-1.17
2023-02-09T19:10:52.538Z,-1.25
2023-02-09T19:13:21.338Z,-1.29
2023-02-09T19:15:52.525Z,-1.24
2023-02-09T19:18:20.608Z,-1.29
2023-02-09T19:20:50.422Z,-1.39
2023-02-09T19:23:19.076Z,-1.41
2023-02-09T19:25:50.783Z,-1.52
2023-02-09T19:28:18.131Z,-1.34
2023-02-09T19:30:49.785Z,-1.32
2023-02-09T19:33:17.866Z,-1.42
2023-02-09T19:35:46.535Z,-1.44
2023-02-09T19:38:15.723Z,-1.40
2023-02-09T19:40:43.972Z,-1.35
2023-02-09T19:43:13.965Z,-1.32
2023-02-09T19:45:42.709Z,-1.34
2023-02-09T19:48:11.815Z,-1.35
2023-02-09T19:50:43.265Z,-1.41
2023-02-09T19:53:12.332Z,-1.42
2023-02-09T19:55:53.334Z,-1.46
2023-02-09T19:58:24.510Z,-1.51
2023-02-09T20:00:54.778Z,-1.49
2023-02-09T20:03:24.578Z,-1.39
2023-02-09T20:05:55.061Z,-1.46
2023-02-09T20:08:23.079Z,-1.42
2023-02-09T20:10:51.563Z,-1.37
2023-02-09T20:13:19.082Z,-1.27
2023-02-09T20:15:47.774Z,-1.20
2023-02-09T20:18:18.538Z,-1.09
2023-02-09T20:20:47.195Z,-1.09
2023-02-09T20:23:16.949Z,-1.10
2023-02-09T20:25:49.299Z,-1.12
2023-02-09T20:28:17.705Z,-1.11
2023-02-09T20:30:47.390Z,-1.13
2023-02-09T20:33:15.798Z,-1.07
2023-02-09T20:35:45.502Z,-1.04
2023-02-09T20:38:13.670Z,-1.16
2023-02-09T20:40:43.383Z,-1.14
2023-02-09T20:43:30.955Z,-1.23
2023-02-09T20:46:22.991Z,-1.28
2023-02-09T20:48:51.313Z,-1.34
2023-02-09T20:51:19.888Z,-1.37
2023-02-09T20:53:47.868Z,-1.39
2023-02-09T20:56:15.950Z,-1.39
2023-02-09T20:58:44.961Z,-1.37
2023-02-09T21:01:15.988Z,-1.40
2023-02-09T21:03:43.968Z,-1.41
2023-02-09T21:06:16.654Z,-1.41
2023-02-09T21:08:44.104Z,-1.45
2023-02-09T21:11:11.596Z,-1.53
2023-02-09T21:13:41.538Z,-1.61
2023-02-09T21:16:10.054Z,-1.65
2023-02-09T21:18:37.776Z,-1.76
2023-02-09T21:21:06.133Z,-1.86
2023-02-09T21:23:34.053Z,-1.84
2023-02-09T21:26:03.518Z,-1.87
2023-02-09T21:28:34.077Z,-1.94
2023-02-09T21:31:01.826Z,-1.97
2023-02-09T21:33:29.021Z,-2.00
2023-02-09T21:35:58.227Z,-2.08
2023-02-09T21:38:25.476Z,-2.12
2023-02-09T21:40:55.144Z,-2.19
2023-02-09T21:43:22.475Z,-2.15
2023-02-09T21:45:49.814Z,-2.07
2023-02-09T21:48:16.958Z,-2.20
2023-02-09T21:50:47.086Z,-2.17
2023-02-09T21:53:14.032Z,-2.17
2023-02-09T21:55:41.387Z,-2.28
2023-02-09T21:58:08.410Z,-2.31
2023-02-09T22:00:35.713Z,-2.40
2023-02-09T22:03:02.751Z,-2.48
2023-02-09T22:05:30.123Z,-2.44
2023-02-09T22:07:57.442Z,-2.53
2023-02-09T22:10:24.723Z,-2.69
2023-02-09T22:12:52.057Z,-2.89
2023-02-09T22:15:19.517Z,-3.04
2023-02-09T22:17:48.017Z,-3.14
2023-02-09T22:20:15.463Z,-3.27
2023-02-09T22:22:45.387Z,-3.34
2023-02-09T22:25:13.063Z,-3.38
2023-02-09T22:27:40.008Z,-3.48
2023-02-09T22:30:07.577Z,-3.55
2023-02-09T22:32:34.457Z,-3.52
2023-02-09T22:35:01.778Z,-3.52
2023-02-09T22:37:28.670Z,-3.55
2023-02-09T22:39:58.894Z,-3.57
2023-02-09T22:42:25.804Z,-3.63
2023-02-09T22:44:53.068Z,-3.74
2023-02-09T22:47:20.046Z,-3.83
2023-02-09T22:49:47.477Z,-3.85
2023-02-09T22:52:14.430Z,-3.93
2023-02-09T22:54:41.594Z,-3.96
2023-02-09T22:57:08.543Z,-3.97
2023-02-09T22:59:36.425Z,-3.93
2023-02-09T23:02:05.865Z,-3.86
2023-02-09T23:04:33.087Z,-3.85
2023-02-09T23:07:00.462Z,-3.76
2023-02-09T23:09:28.007Z,-3.69
2023-02-09T23:11:57.366Z,-3.71
2023-02-09T23:14:27.195Z,-3.77
2023-02-09T23:16:54.080Z,-3.85
2023-02-09T23:19:21.342Z,-3.94
2023-02-09T23:21:49.473Z,-4.00
2023-02-09T23:24:17.703Z,-4.04
2023-02-09T23:26:44.652Z,-3.79
2023-02-09T23:29:12.936Z,-3.78
2023-02-09T23:31:42.861Z,-3.86
2023-02-09T23:34:13.383Z,-3.94
2023-02-09T23:36:40.638Z,-4.05
2023-02-09T23:39:07.597Z,-4.16
2023-02-09T23:41:35.466Z,-4.24
2023-02-09T23:44:03.096Z,-4.33
2023-02-09T23:46:30.380Z,-4.40
2023-02-09T23:48:57.397Z,-4.47
2023-02-09T23:51:28.643Z,-4.51
2023-02-09T23:53:56.400Z,-4.60
2023-02-09T23:56:24.069Z,-4.66
2023-02-09T23:58:51.906Z,-4.74
